Time;durP1;ratioP1;P1;durP2;ratioP2;P2;SDS_P1;SDS_P2;PMS_P1;PMS_P2;Temp;Humidity;BMP_temperature;BMP_pressure;BME280_temperature;BME280_humidity;BME280_pressure;Samples;Min_cycle;Max_cycle;Signal;HPM_P1;HPM_P2
2022/01/05 00:01:16;;;;;;;1999.90;999.90;;;2.90;99.90;;;;;;5052905;28;20168;-71
2022/01/05 00:03:42;;;;;;;1999.90;999.90;;;2.80;99.90;;;;;;5053045;28;20695;-71
2022/01/05 00:06:08;;;;;;;1999.90;999.90;;;2.70;99.90;;;;;;5052644;28;20168;-71
2022/01/05 00:08:33;;;;;;;1999.90;999.90;;;2.70;99.90;;;;;;5052805;28;20191;-72
2022/01/05 00:10:59;;;;;;;1999.90;999.90;;;2.70;99.90;;;;;;5052875;28;20253;-71
2022/01/05 00:13:25;;;;;;;1999.90;999.90;;;2.70;99.90;;;;;;5052874;28;20176;-71
2022/01/05 00:15:50;;;;;;;1999.90;999.90;;;2.50;99.90;;;;;;5052503;28;20172;-71
2022/01/05 00:18:16;;;;;;;1999.90;999.90;;;2.50;99.90;;;;;;5052912;28;20207;-71
2022/01/05 00:20:43;;;;;;;1999.90;999.90;;;2.50;99.90;;;;;;5053034;28;20164;-72
2022/01/05 00:23:09;;;;;;;1999.90;999.90;;;2.50;99.90;;;;;;5053570;28;20176;-72
2022/01/05 00:25:34;;;;;;;1999.90;999.90;;;2.40;99.90;;;;;;5053327;28;20175;-72
2022/01/05 00:28:00;;;;;;;1999.90;999.90;;;2.50;99.90;;;;;;5053066;28;20403;-71
2022/01/05 00:30:26;;;;;;;1999.90;999.90;;;2.50;99.90;;;;;;5052745;28;20177;-72
2022/01/05 00:32:51;;;;;;;1999.90;999.90;;;2.50;99.90;;;;;;5052723;28;20247;-71
2022/01/05 00:35:17;;;;;;;1999.90;999.90;;;2.40;99.90;;;;;;5052602;28;20179;-71
2022/01/05 00:37:42;;;;;;;1999.90;999.90;;;2.50;99.90;;;;;;5052500;28;20172;-72
2022/01/05 00:40:09;;;;;;;1999.90;999.90;;;2.50;99.90;;;;;;5052465;28;20219;-72
2022/01/05 00:42:34;;;;;;;1999.90;999.90;;;2.60;99.90;;;;;;5052497;28;20190;-72
2022/01/05 00:45:00;;;;;;;1999.90;999.90;;;2.60;99.90;;;;;;5051700;28;20172;-72
2022/01/05 00:47:26;;;;;;;1999.90;999.90;;;2.70;99.90;;;;;;5052743;28;20622;-72
2022/01/05 00:49:52;;;;;;;1999.90;999.90;;;2.80;99.90;;;;;;5052508;28;20965;-72
2022/01/05 00:52:18;;;;;;;1999.90;999.90;;;2.80;99.90;;;;;;5061149;28;20168;-73
2022/01/05 00:54:45;;;;;;;1999.90;999.90;;;2.70;99.90;;;;;;5063001;28;20179;-73
2022/01/05 00:57:11;;;;;;;1999.90;999.90;;;2.80;99.90;;;;;;5053782;28;20204;-72
2022/01/05 00:59:36;;;;;;;1999.90;999.90;;;2.80;99.90;;;;;;5051893;28;20208;-71
2022/01/05 01:02:02;;;;;;;1999.90;999.90;;;2.80;99.90;;;;;;5051943;28;20171;-72
2022/01/05 01:04:28;;;;;;;1999.90;999.90;;;2.80;99.90;;;;;;5051701;28;20612;-72
2022/01/05 01:06:53;;;;;;;1999.90;999.90;;;2.80;99.90;;;;;;5051858;28;20183;-71
2022/01/05 01:09:19;;;;;;;1999.90;999.90;;;2.80;99.90;;;;;;5051762;28;20192;-72
2022/01/05 01:11:45;;;;;;;1999.90;999.90;;;2.70;99.90;;;;;;5052008;28;20222;-70
2022/01/05 01:14:10;;;;;;;1999.90;999.90;;;2.70;99.90;;;;;;5051556;28;20660;-72
2022/01/05 01:16:36;;;;;;;1999.90;999.90;;;2.70;99.90;;;;;;5051795;28;20653;-72
2022/01/05 01:19:02;;;;;;;1999.90;999.90;;;2.70;99.90;;;;;;5051621;28;20203;-72
2022/01/05 01:21:28;;;;;;;1999.90;999.90;;;2.70;99.90;;;;;;5051722;28;20609;-72
2022/01/05 01:23:55;;;;;;;1999.90;999.90;;;2.70;99.90;;;;;;5051733;28;20195;-72
2022/01/05 01:26:23;;;;;;;1999.90;999.90;;;2.60;99.90;;;;;;5051514;28;20225;-72
2022/01/05 01:28:50;;;;;;;1999.90;999.90;;;2.60;99.90;;;;;;5051692;28;20806;-72
2022/01/05 01:31:16;;;;;;;1999.90;999.90;;;2.70;99.90;;;;;;5051663;28;20252;-72
2022/01/05 01:33:42;;;;;;;1999.90;999.90;;;2.70;99.90;;;;;;5051831;28;20175;-72
2022/01/05 01:36:08;;;;;;;1999.90;999.90;;;2.80;99.90;;;;;;5051296;28;20544;-72
2022/01/05 01:38:33;;;;;;;1999.90;999.90;;;2.80;99.90;;;;;;5051439;28;20203;-71
2022/01/05 01:40:59;;;;;;;1999.90;999.90;;;2.80;99.90;;;;;;5051646;28;20210;-72
2022/01/05 01:43:24;;;;;;;1999.90;999.90;;;2.90;99.90;;;;;;5051616;28;20167;-72
2022/01/05 01:45:50;;;;;;;1999.90;999.90;;;2.90;99.90;;;;;;5051257;28;20513;-72
2022/01/05 01:48:16;;;;;;;1999.90;999.90;;;2.90;99.90;;;;;;5051405;28;20183;-71
2022/01/05 01:50:41;;;;;;;1999.90;999.90;;;3.00;99.90;;;;;;5051367;28;20191;-72
2022/01/05 01:53:07;;;;;;;1999.90;999.90;;;3.00;99.90;;;;;;5051513;28;20170;-72
2022/01/05 01:55:35;;;;;;;1999.90;999.90;;;3.00;99.90;;;;;;5051202;28;20202;-72
2022/01/05 01:58:03;;;;;;;1999.90;999.90;;;3.00;99.90;;;;;;5054284;28;20741;-72
2022/01/05 02:00:31;;;;;;;1999.90;999.90;;;3.00;99.90;;;;;;5055193;28;20630;-72
2022/01/05 02:02:57;;;;;;;1999.90;999.90;;;3.00;99.90;;;;;;5055136;28;20167;-72
2022/01/05 02:05:23;;;;;;;1999.90;999.90;;;2.90;99.90;;;;;;5054802;28;20172;-71
2022/01/05 02:07:49;;;;;;;1999.90;999.90;;;2.90;99.90;;;;;;5055107;28;20197;-72
2022/01/05 02:10:16;;;;;;;1999.90;999.90;;;2.80;99.90;;;;;;5055127;28;20422;-71
2022/01/05 02:12:42;;;;;;;1999.90;999.90;;;2.80;99.90;;;;;;5054987;28;20238;-72
2022/01/05 02:15:09;;;;;;;1999.90;999.90;;;2.80;99.90;;;;;;5054678;28;20176;-72
2022/01/05 02:17:45;;;;;;;1999.90;999.90;;;2.80;99.90;;;;;;5054730;28;20167;-71
2022/01/05 02:20:16;;;;;;;1999.90;999.90;;;2.80;99.90;;;;;;5054951;28;20202;-72
2022/01/05 02:22:42;;;;;;;1999.90;999.90;;;2.80;99.90;;;;;;5054973;28;20164;-72
2022/01/05 02:25:08;;;;;;;1999.90;999.90;;;2.70;99.90;;;;;;5054486;28;20167;-71
2022/01/05 02:27:34;;;;;;;1999.90;999.90;;;2.70;99.90;;;;;;5054751;28;20663;-71
2022/01/05 02:29:59;;;;;;;1999.90;999.90;;;2.70;99.90;;;;;;5054543;28;20422;-71
2022/01/05 02:32:25;;;;;;;1999.90;999.90;;;2.80;99.90;;;;;;5054593;28;20172;-72
2022/01/05 02:34:50;;;;;;;1999.90;999.90;;;2.70;99.90;;;;;;5054333;28;20617;-71
2022/01/05 02:37:16;;;;;;;1999.90;999.90;;;2.70;99.90;;;;;;5054569;28;20163;-72
2022/01/05 02:39:41;;;;;;;1999.90;999.90;;;2.70;99.90;;;;;;5054417;28;20257;-72
2022/01/05 02:42:07;;;;;;;1999.90;999.90;;;2.80;99.90;;;;;;5054462;28;20171;-70
2022/01/05 02:44:33;;;;;;;1999.90;999.90;;;2.70;99.90;;;;;;5054192;28;20528;-72
2022/01/05 02:47:00;;;;;;;1999.90;999.90;;;2.70;99.90;;;;;;5054364;28;20697;-70
2022/01/05 02:49:26;;;;;;;1999.90;999.90;;;2.70;99.90;;;;;;5054361;28;20273;-70
2022/01/05 02:51:51;;;;;;;1999.90;999.90;;;2.70;99.90;;;;;;5054317;28;20705;-71
2022/01/05 02:54:17;;;;;;;1999.90;999.90;;;2.70;99.90;;;;;;5054033;28;20262;-70
2022/01/05 02:56:43;;;;;;;1999.90;999.90;;;2.70;99.90;;;;;;5054039;28;20180;-71
2022/01/05 02:59:08;;;;;;;1999.90;999.90;;;2.70;99.90;;;;;;5054047;28;20282;-71
2022/01/05 03:01:36;;;;;;;1999.90;999.90;;;2.70;99.90;;;;;;5054060;28;20607;-71
2022/01/05 03:04:02;;;;;;;1999.90;999.90;;;2.70;99.90;;;;;;5053884;28;20191;-70
2022/01/05 03:06:27;;;;;;;1999.90;999.90;;;2.70;99.90;;;;;;5054154;28;20728;-70
2022/01/05 03:08:53;;;;;;;1999.90;999.90;;;2.70;99.90;;;;;;5053415;28;20530;-71
2022/01/05 03:11:18;;;;;;;1999.90;999.90;;;2.70;99.90;;;;;;5053967;28;20199;-71
2022/01/05 03:13:44;;;;;;;1999.90;999.90;;;2.60;99.90;;;;;;5053814;28;20222;-71
2022/01/05 03:16:10;;;;;;;1999.90;999.90;;;2.60;99.90;;;;;;5053510;28;20222;-71
2022/01/05 03:18:35;;;;;;;1999.90;999.90;;;2.60;99.90;;;;;;5053557;28;20210;-71
2022/01/05 03:21:01;;;;;;;1999.90;999.90;;;2.60;99.90;;;;;;5053897;28;20179;-72
2022/01/05 03:23:26;;;;;;;1999.90;999.90;;;2.60;99.90;;;;;;5053621;28;20246;-71
2022/01/05 03:25:54;;;;;;;1999.90;999.90;;;2.60;99.90;;;;;;5053396;28;20167;-70
2022/01/05 03:28:20;;;;;;;1999.90;999.90;;;2.60;99.90;;;;;;5053525;28;20191;-72
2022/01/05 03:30:45;;;;;;;1999.90;999.90;;;2.50;99.90;;;;;;5053483;28;20172;-71
2022/01/05 03:33:12;;;;;;;1999.90;999.90;;;2.50;99.90;;;;;;5054373;28;20195;-71
2022/01/05 03:35:43;;;;;;;1999.90;999.90;;;2.50;99.90;;;;;;5056602;28;20175;-71
2022/01/05 03:38:10;;;;;;;1999.90;999.90;;;2.50;99.90;;;;;;5057710;28;20342;-71
2022/01/05 03:40:37;;;;;;;1999.90;999.90;;;2.50;99.90;;;;;;5054517;28;20176;-71
2022/01/05 03:43:04;;;;;;;1999.90;999.90;;;2.40;99.90;;;;;;5053299;28;20197;-70
2022/01/05 03:45:30;;;;;;;1999.90;999.90;;;2.40;99.90;;;;;;5052928;28;20168;-71
2022/01/05 03:47:56;;;;;;;1999.90;999.90;;;2.40;99.90;;;;;;5052064;28;20648;-71
2022/01/05 03:50:21;;;;;;;1999.90;999.90;;;2.40;99.90;;;;;;5053165;28;20229;-71
2022/01/05 03:52:47;;;;;;;1999.90;999.90;;;2.40;99.90;;;;;;5053297;28;20544;-71
2022/01/05 03:55:12;;;;;;;1999.90;999.90;;;2.30;99.90;;;;;;5052773;28;20235;-72
2022/01/05 03:57:38;;;;;;;1999.90;999.90;;;2.30;99.90;;;;;;5052793;28;20187;-71
2022/01/05 04:00:05;;;;;;;1999.90;999.90;;;2.30;99.90;;;;;;5053219;28;20286;-71
2022/01/05 04:02:31;;;;;;;1999.90;999.90;;;2.30;99.90;;;;;;5052825;28;20167;-70
2022/01/05 04:04:57;;;;;;;1999.90;999.90;;;2.30;99.90;;;;;;5052570;28;20187;-71
2022/01/05 04:07:22;;;;;;;1999.90;999.90;;;2.20;99.90;;;;;;5052872;28;20180;-71
2022/01/05 04:09:48;;;;;;;1999.90;999.90;;;2.30;99.90;;;;;;5052711;28;20219;-71
2022/01/05 04:12:13;;;;;;;1999.90;999.90;;;2.30;99.90;;;;;;5052676;28;20175;-71
2022/01/05 04:14:39;;;;;;;1999.90;999.90;;;2.30;99.90;;;;;;5052427;28;20558;-69
2022/01/05 04:17:04;;;;;;;1999.90;999.90;;;2.30;99.90;;;;;;5052623;28;20171;-71
2022/01/05 04:19:31;;;;;;;1999.90;999.90;;;2.30;99.90;;;;;;5051707;28;20238;-71
2022/01/05 04:21:57;;;;;;;1999.90;999.90;;;2.30;99.90;;;;;;5052527;28;20665;-72
2022/01/05 04:24:23;;;;;;;1999.90;999.90;;;2.30;99.90;;;;;;5052285;28;20176;-71
2022/01/05 04:26:48;;;;;;;1999.90;999.90;;;2.30;99.90;;;;;;5052428;28;20398;-71
2022/01/05 04:29:14;;;;;;;1999.90;999.90;;;2.20;99.90;;;;;;5052571;28;20422;-70
2022/01/05 04:31:40;;;;;;;1999.90;999.90;;;2.20;99.90;;;;;;5052313;28;20263;-70
2022/01/05 04:34:05;;;;;;;1999.90;999.90;;;2.20;99.90;;;;;;5052050;28;20171;-71
2022/01/05 04:36:31;;;;;;;1999.90;999.90;;;2.20;99.90;;;;;;5052377;28;20175;-71
2022/01/05 04:38:56;;;;;;;1999.90;999.90;;;2.20;99.90;;;;;;5052195;28;20240;-71
2022/01/05 04:41:22;;;;;;;1999.90;999.90;;;2.10;99.90;;;;;;5052162;28;20168;-70
2022/01/05 04:43:48;;;;;;;1999.90;999.90;;;2.10;99.90;;;;;;5052212;28;20164;-70
2022/01/05 04:46:13;;;;;;;1999.90;999.90;;;2.10;99.90;;;;;;5051922;28;20672;-71
2022/01/05 04:48:39;;;;;;;1999.90;999.90;;;2.10;99.90;;;;;;5052064;28;20245;-71
2022/01/05 04:51:05;;;;;;;1999.90;999.90;;;2.10;99.90;;;;;;5052140;28;20626;-70
2022/01/05 04:53:30;;;;;;;1999.90;999.90;;;2.00;99.90;;;;;;5079695;22;20310;-74
2022/01/05 04:55:56;;;;;;;1999.90;999.90;;;2.00;99.90;;;;;;5031836;28;20660;-74
2022/01/05 04:58:22;;;;;;;1999.90;999.90;;;2.00;99.90;;;;;;5031983;28;20200;-74
2022/01/05 05:00:48;;;;;;;1999.90;999.90;;;2.00;99.90;;;;;;5032048;28;20171;-74
2022/01/05 05:03:14;;;;;;;1999.90;999.90;;;2.00;99.90;;;;;;5031972;28;20187;-74
2022/01/05 05:05:39;;;;;;;1999.90;999.90;;;2.00;99.90;;;;;;5031749;28;20168;-74
2022/01/05 05:08:05;;;;;;;1999.90;999.90;;;2.00;99.90;;;;;;5032005;28;20168;-74
2022/01/05 05:10:31;;;;;;;1999.90;999.90;;;2.00;99.90;;;;;;5031947;28;20629;-74
2022/01/05 05:12:57;;;;;;;1999.90;999.90;;;2.00;99.90;;;;;;5031845;28;20726;-74
2022/01/05 05:15:23;;;;;;;1999.90;999.90;;;2.00;99.90;;;;;;5031623;28;20403;-74
2022/01/05 05:17:49;;;;;;;1999.90;999.90;;;2.00;99.90;;;;;;5031711;28;20923;-74
2022/01/05 05:20:14;;;;;;;1999.90;999.90;;;2.00;99.90;;;;;;5031909;28;20173;-74
2022/01/05 05:22:41;;;;;;;1999.90;999.90;;;2.00;99.90;;;;;;5031756;28;20437;-74
2022/01/05 05:25:07;;;;;;;1999.90;999.90;;;2.00;99.90;;;;;;5031496;28;20540;-74
2022/01/05 05:27:33;;;;;;;1999.90;999.90;;;2.00;99.90;;;;;;5031753;28;20260;-74
2022/01/05 05:29:58;;;;;;;1999.90;999.90;;;2.00;99.90;;;;;;5031806;28;20259;-74
2022/01/05 05:32:24;;;;;;;1999.90;999.90;;;2.00;99.90;;;;;;5035608;28;20250;-74
2022/01/05 05:34:50;;;;;;;1999.90;999.90;;;2.00;99.90;;;;;;5035538;28;20694;-74
2022/01/05 05:37:16;;;;;;;1999.90;999.90;;;2.00;99.90;;;;;;5035791;28;20230;-74
2022/01/05 05:39:42;;;;;;;1999.90;999.90;;;2.00;99.90;;;;;;5035564;28;20215;-74
2022/01/05 05:42:08;;;;;;;1999.90;999.90;;;1.90;99.90;;;;;;5035583;28;20587;-74
2022/01/05 05:44:34;;;;;;;1999.90;999.90;;;1.90;99.90;;;;;;5035300;28;20395;-74
2022/01/05 05:47:00;;;;;;;1999.90;999.90;;;1.90;99.90;;;;;;5035494;28;20641;-74
2022/01/05 05:49:26;;;;;;;1999.90;999.90;;;1.90;99.90;;;;;;5035543;28;20252;-74
2022/01/05 05:51:52;;;;;;;1999.90;999.90;;;1.90;99.90;;;;;;5035448;28;20255;-74
2022/01/05 05:54:17;;;;;;;1999.90;999.90;;;1.90;99.90;;;;;;5035042;28;20995;-74
2022/01/05 05:56:43;;;;;;;1999.90;999.90;;;1.90;99.90;;;;;;5035389;28;20192;-74
2022/01/05 05:59:08;;;;;;;1999.90;999.90;;;1.90;99.90;;;;;;5035277;28;20207;-73
2022/01/05 06:01:34;;;;;;;1999.90;999.90;;;1.90;99.90;;;;;;5035243;28;20656;-74
2022/01/05 06:04:00;;;;;;;1999.90;999.90;;;1.90;99.90;;;;;;5034924;28;20192;-74
2022/01/05 06:06:25;;;;;;;1999.90;999.90;;;1.80;99.90;;;;;;5035136;28;20187;-74
2022/01/05 06:08:51;;;;;;;1999.90;999.90;;;1.90;99.90;;;;;;5035157;28;20176;-74
2022/01/05 06:11:17;;;;;;;1999.90;999.90;;;1.90;99.90;;;;;;5035104;28;20817;-74
2022/01/05 06:13:42;;;;;;;1999.90;999.90;;;1.90;99.90;;;;;;5034962;28;20394;-74
2022/01/05 06:16:08;;;;;;;1999.90;999.90;;;2.00;99.90;;;;;;5034737;28;20649;-74
2022/01/05 06:18:33;;;;;;;1999.90;999.90;;;2.00;99.90;;;;;;5034909;28;20202;-74
2022/01/05 06:20:59;;;;;;;1999.90;999.90;;;2.10;99.90;;;;;;5034952;28;20160;-74
2022/01/05 06:23:24;;;;;;;1999.90;999.90;;;2.10;99.90;;;;;;5034814;28;20194;-74
2022/01/05 06:25:50;;;;;;;1999.90;999.90;;;2.10;99.90;;;;;;5034539;28;20178;-73
2022/01/05 06:28:16;;;;;;;1999.90;999.90;;;2.10;99.90;;;;;;5034837;28;20172;-74
2022/01/05 06:30:41;;;;;;;1999.90;999.90;;;2.00;99.90;;;;;;5034774;28;20173;-74
2022/01/05 06:33:08;;;;;;;1999.90;999.90;;;2.00;99.90;;;;;;5034757;28;20246;-74
2022/01/05 06:35:33;;;;;;;1999.90;999.90;;;2.00;99.90;;;;;;5034511;28;20173;-74
2022/01/05 06:37:59;;;;;;;1999.90;999.90;;;2.00;99.90;;;;;;5034513;28;20180;-74
2022/01/05 06:40:25;;;;;;;1999.90;999.90;;;2.00;99.90;;;;;;5034763;28;20421;-74
2022/01/05 06:42:51;;;;;;;1999.90;999.90;;;2.10;99.90;;;;;;5033636;28;20879;-74
2022/01/05 06:45:17;;;;;;;1999.90;999.90;;;2.10;99.90;;;;;;5034235;28;20407;-74
2022/01/05 06:47:42;;;;;;;1999.90;999.90;;;2.10;99.90;;;;;;5034521;28;20164;-74
2022/01/05 06:50:09;;;;;;;1999.90;999.90;;;2.20;99.90;;;;;;5034425;28;20248;-74
2022/01/05 06:52:36;;;;;;;1999.90;999.90;;;2.10;99.90;;;;;;5034258;28;20208;-74
2022/01/05 06:55:02;;;;;;;1999.90;999.90;;;2.10;99.90;;;;;;5034093;28;20557;-74
2022/01/05 06:57:28;;;;;;;1999.90;999.90;;;2.10;99.90;;;;;;5034328;28;20541;-73
2022/01/05 06:59:53;;;;;;;1999.90;999.90;;;2.10;99.90;;;;;;5034109;28;20204;-74
2022/01/05 07:02:19;;;;;;;1999.90;999.90;;;2.10;99.90;;;;;;5034195;28;20195;-74
2022/01/05 07:04:44;;;;;;;1999.90;999.90;;;2.20;99.90;;;;;;5033942;28;20171;-74
2022/01/05 07:07:10;;;;;;;1999.90;999.90;;;2.20;99.90;;;;;;5034176;28;20536;-74
2022/01/05 07:09:36;;;;;;;1999.90;999.90;;;2.20;99.90;;;;;;5034054;28;20230;-74
2022/01/05 07:12:02;;;;;;;1999.90;999.90;;;2.20;99.90;;;;;;5016145;28;20175;-74
2022/01/05 07:14:27;;;;;;;1999.90;999.90;;;2.30;99.90;;;;;;5033609;28;20168;-73
2022/01/05 07:16:53;;;;;;;1999.90;999.90;;;2.40;99.90;;;;;;5033877;28;20187;-74
2022/01/05 07:19:20;;;;;;;1999.90;999.90;;;2.40;99.90;;;;;;5033870;28;20188;-74
2022/01/05 07:21:46;;;;;;;1999.90;999.90;;;2.50;99.90;;;;;;5033796;28;20172;-73
2022/01/05 07:24:16;;;;;;;1999.90;999.90;;;2.50;99.90;;;;;;5033441;28;20207;-74
2022/01/05 07:26:41;;;;;;;1999.90;999.90;;;2.50;99.90;;;;;;5033770;28;20282;-74
2022/01/05 07:29:07;;;;;;;1999.90;999.90;;;2.60;99.90;;;;;;5033719;28;20200;-74
2022/01/05 07:31:33;;;;;;;1999.90;999.90;;;2.60;99.90;;;;;;5033637;28;20739;-74
2022/01/05 07:33:59;;;;;;;1999.90;999.90;;;2.70;99.90;;;;;;5033333;28;20665;-73
2022/01/05 07:36:25;;;;;;;1999.90;999.90;;;2.70;99.90;;;;;;5033415;28;20168;-74
2022/01/05 07:38:50;;;;;;;1999.90;999.90;;;2.70;99.90;;;;;;5033381;28;20857;-74
2022/01/05 07:41:16;;;;;;;1999.90;999.90;;;2.70;99.90;;;;;;5033446;28;20411;-74
2022/01/05 07:43:42;;;;;;;1999.90;999.90;;;2.80;99.90;;;;;;5033306;28;20731;-73
2022/01/05 07:46:07;;;;;;;1999.90;999.90;;;2.80;99.90;;;;;;5033094;28;20187;-74
2022/01/05 07:48:33;;;;;;;1999.90;999.90;;;2.80;99.90;;;;;;5033272;28;20591;-73
2022/01/05 07:50:58;;;;;;;1999.90;999.90;;;2.80;99.90;;;;;;5033266;28;20172;-73
2022/01/05 07:53:24;;;;;;;1999.90;999.90;;;2.80;99.90;;;;;;5033046;28;20286;-73
2022/01/05 07:55:50;;;;;;;1999.90;999.90;;;2.80;99.90;;;;;;5032869;28;20180;-74
2022/01/05 07:58:15;;;;;;;1999.90;999.90;;;2.80;99.90;;;;;;5033041;28;20192;-73
2022/01/05 08:00:41;;;;;;;1999.90;999.90;;;2.80;99.90;;;;;;5033094;28;20178;-73
2022/01/05 08:03:06;;;;;;;1999.90;999.90;;;2.80;99.90;;;;;;5032943;28;20191;-74
2022/01/05 08:05:32;;;;;;;1999.90;999.90;;;2.80;99.90;;;;;;5032688;28;20168;-74
2022/01/05 08:07:58;;;;;;;1999.90;999.90;;;2.70;99.90;;;;;;5032931;28;20173;-74
2022/01/05 08:10:24;;;;;;;1999.90;999.90;;;2.70;99.90;;;;;;5032902;28;20259;-74
2022/01/05 08:12:49;;;;;;;1999.90;999.90;;;2.70;99.90;;;;;;5032726;28;20188;-74
2022/01/05 08:15:15;;;;;;;1999.90;999.90;;;2.70;99.90;;;;;;5032509;28;20179;-74
2022/01/05 08:17:42;;;;;;;1999.90;999.90;;;2.70;99.90;;;;;;5032809;28;20230;-74
2022/01/05 08:20:10;;;;;;;1999.90;999.90;;;2.70;99.90;;;;;;5032541;28;20199;-74
2022/01/05 08:22:44;;;;;;;1999.90;999.90;;;2.70;99.90;;;;;;5032619;28;20191;-74
2022/01/05 08:25:15;;;;;;;1999.90;999.90;;;2.70;99.90;;;;;;5032428;28;20239;-73
2022/01/05 08:27:46;;;;;;;1999.90;999.90;;;2.80;99.90;;;;;;5032576;28;20168;-74
2022/01/05 08:30:17;;;;;;;1999.90;999.90;;;2.80;99.90;;;;;;5032560;28;20169;-74
2022/01/05 08:32:47;;;;;;;1999.90;999.90;;;2.90;99.90;;;;;;5032295;28;20204;-74
2022/01/05 08:35:13;;;;;;;1999.90;999.90;;;3.00;99.90;;;;;;5032250;28;20191;-74
2022/01/05 08:37:44;;;;;;;1999.90;999.90;;;3.00;99.90;;;;;;5032486;28;20645;-74
2022/01/05 08:40:13;;;;;;;1999.90;999.90;;;3.10;99.90;;;;;;5032390;28;20207;-74
2022/01/05 08:42:40;;;;;;;1999.90;999.90;;;3.10;99.90;;;;;;5032163;28;20279;-74
2022/01/05 08:45:06;;;;;;;1999.90;999.90;;;3.10;99.90;;;;;;5031841;28;20785;-74
2022/01/05 08:47:32;;;;;;;1999.90;999.90;;;3.10;99.90;;;;;;5032243;28;20191;-74
2022/01/05 08:49:58;;;;;;;1999.90;999.90;;;3.20;99.90;;;;;;5032227;28;20209;-74
2022/01/05 08:52:24;;;;;;;1999.90;999.90;;;3.20;99.90;;;;;;5032036;28;20200;-73
2022/01/05 08:54:50;;;;;;;1999.90;999.90;;;3.20;99.90;;;;;;5031962;28;20179;-74
2022/01/05 08:57:16;;;;;;;1999.90;999.90;;;3.30;99.90;;;;;;5032091;28;20482;-74
2022/01/05 08:59:43;;;;;;;1999.90;999.90;;;3.20;99.90;;;;;;5031992;28;20501;-74
2022/01/05 09:02:09;;;;;;;1999.90;999.90;;;3.30;99.90;;;;;;5031922;28;20168;-74
2022/01/05 09:04:34;;;;;;;1999.90;999.90;;;3.30;99.90;;;;;;5031746;28;20176;-74
2022/01/05 09:07:00;;;;;;;1999.90;999.90;;;3.30;99.90;;;;;;5031593;28;20403;-74
2022/01/05 09:09:26;;;;;;;1999.90;999.90;;;3.30;99.90;;;;;;5032013;28;20733;-74
2022/01/05 09:11:52;;;;;;;1999.90;999.90;;;3.30;99.90;;;;;;5023320;28;20845;-75
2022/01/05 09:14:18;;;;;;;1999.90;999.90;;;3.30;99.90;;;;;;5018270;28;20479;-74
2022/01/05 09:16:44;;;;;;;1999.90;999.90;;;3.40;99.90;;;;;;5029476;28;20261;-74
2022/01/05 09:19:09;;;;;;;1999.90;999.90;;;3.40;99.90;;;;;;5028982;28;20203;-74
2022/01/05 09:21:36;;;;;;;1999.90;999.90;;;3.40;99.90;;;;;;5029870;28;20184;-73
2022/01/05 09:24:02;;;;;;;1999.90;999.90;;;3.40;99.90;;;;;;5029952;28;20207;-73
2022/01/05 09:26:28;;;;;;;1999.90;999.90;;;3.40;99.90;;;;;;5030049;28;20633;-73
2022/01/05 09:28:54;;;;;;;1999.90;999.90;;;3.40;99.90;;;;;;5030129;28;20176;-73
2022/01/05 09:31:20;;;;;;;1999.90;999.90;;;3.50;99.90;;;;;;5030332;28;20168;-75
2022/01/05 09:33:45;;;;;;;1999.90;999.90;;;3.50;99.90;;;;;;5029750;28;20234;-75
2022/01/05 09:36:31;;;;;;;1999.90;999.90;;;3.50;99.90;;;;;;5024323;28;20176;-75
2022/01/05 09:41:57;;;;;;;1999.90;999.90;;;3.60;99.90;;;;;;4993938;28;20584;-75
2022/01/05 09:44:42;;;;;;;1999.90;999.90;;;3.60;99.90;;;;;;5028036;28;20215;-75
2022/01/05 09:47:20;;;;;;;1999.90;999.90;;;3.70;99.90;;;;;;5028839;28;20184;-75
2022/01/05 09:49:57;;;;;;;1999.90;999.90;;;3.70;99.90;;;;;;5028676;28;20173;-75
2022/01/05 09:52:24;;;;;;;1999.90;999.90;;;3.80;99.90;;;;;;5029031;28;20247;-75
2022/01/05 09:54:50;;;;;;;1999.90;999.90;;;3.90;99.90;;;;;;5029142;28;20630;-75
2022/01/05 09:57:19;;;;;;;1999.90;999.90;;;3.90;99.90;;;;;;5028974;28;20180;-75
2022/01/05 09:59:46;;;;;;;1999.90;999.90;;;3.90;99.90;;;;;;5029518;28;20946;-75
2022/01/05 10:02:14;;;;;;;1999.90;999.90;;;3.90;99.90;;;;;;5029263;28;20173;-75
2022/01/05 10:04:40;;;;;;;1999.90;999.90;;;4.00;99.90;;;;;;5028773;28;20168;-75
2022/01/05 10:07:08;;;;;;;1999.90;999.90;;;4.00;99.90;;;;;;5028656;28;20165;-75
2022/01/05 10:09:37;;;;;;;1999.90;999.90;;;4.00;99.90;;;;;;5029373;28;20282;-75
2022/01/05 10:12:04;;;;;;;1999.90;999.90;;;4.00;99.90;;;;;;5028916;28;20188;-75
2022/01/05 10:14:30;;;;;;;1999.90;999.90;;;4.00;99.90;;;;;;5027332;28;20276;-75
2022/01/05 10:17:23;;;;;;;1999.90;999.90;;;4.10;99.90;;;;;;5029255;28;20696;-75
2022/01/05 10:19:59;;;;;;;1999.90;999.90;;;4.10;99.90;;;;;;5029964;28;20208;-76
2022/01/05 10:22:33;;;;;;;1999.90;999.90;;;4.10;99.90;;;;;;5032635;28;20192;-75
2022/01/05 10:25:21;;;;;;;1999.90;999.90;;;4.20;99.90;;;;;;5032108;28;20163;-75
2022/01/05 10:28:01;;;;;;;1999.90;999.90;;;4.20;99.90;;;;;;5032430;28;20556;-75
2022/01/05 10:30:47;;;;;;;1999.90;999.90;;;4.20;99.90;;;;;;5032722;28;20737;-75
2022/01/05 10:33:13;;;;;;;1999.90;999.90;;;4.30;99.90;;;;;;5032188;28;20216;-75
2022/01/05 10:35:38;;;;;;;1999.90;999.90;;;4.30;99.90;;;;;;5031831;28;20169;-75
2022/01/05 10:38:15;;;;;;;1999.90;999.90;;;4.30;99.90;;;;;;5031285;28;20586;-73
2022/01/05 10:40:42;;;;;;;1999.90;999.90;;;4.30;99.90;;;;;;5031488;28;20160;-73
2022/01/05 10:43:13;;;;;;;1999.90;999.90;;;4.30;99.90;;;;;;5032144;28;20238;-73
2022/01/05 10:45:41;;;;;;;1999.90;999.90;;;4.30;99.90;;;;;;5031707;28;20514;-73
2022/01/05 10:48:09;;;;;;;1999.90;999.90;;;4.30;99.90;;;;;;5031722;28;20172;-73
2022/01/05 10:50:36;;;;;;;1999.90;999.90;;;4.30;99.90;;;;;;5032307;28;20171;-73
2022/01/05 10:53:03;;;;;;;1999.90;999.90;;;4.30;99.90;;;;;;5032144;28;20253;-73
2022/01/05 10:55:30;;;;;;;1999.90;999.90;;;4.30;99.90;;;;;;5031272;28;20168;-73
2022/01/05 10:58:06;;;;;;;1999.90;999.90;;;4.30;99.90;;;;;;5032192;28;20168;-73
2022/01/05 11:00:35;;;;;;;1999.90;999.90;;;4.30;99.90;;;;;;5032136;28;20179;-73
2022/01/05 11:03:02;;;;;;;1999.90;999.90;;;4.30;99.90;;;;;;5031844;28;20190;-73
2022/01/05 11:05:28;;;;;;;1999.90;999.90;;;4.40;99.90;;;;;;5031465;28;20601;-73
2022/01/05 11:08:09;;;;;;;1999.90;999.90;;;4.40;99.90;;;;;;5032040;28;20168;-73
2022/01/05 11:10:34;;;;;;;1999.90;999.90;;;4.50;99.90;;;;;;5031543;28;20650;-73
2022/01/05 11:13:00;;;;;;;1999.90;999.90;;;4.50;99.90;;;;;;5030551;28;20188;-72
2022/01/05 11:15:34;;;;;;;1999.90;999.90;;;4.50;99.90;;;;;;5031161;28;20181;-74
2022/01/05 11:18:06;;;;;;;1999.90;999.90;;;4.50;99.90;;;;;;5031272;28;20798;-74
2022/01/05 11:20:31;;;;;;;1999.90;999.90;;;4.50;99.90;;;;;;5031624;28;20175;-73
2022/01/05 11:22:57;;;;;;;1999.90;999.90;;;4.50;99.90;;;;;;5031692;28;20419;-73
2022/01/05 11:25:24;;;;;;;1999.90;999.90;;;4.50;99.90;;;;;;5030427;28;20204;-74
2022/01/05 11:27:50;;;;;;;1999.90;999.90;;;4.50;99.90;;;;;;5031219;28;20805;-73
2022/01/05 11:30:15;;;;;;;1999.90;999.90;;;4.50;99.90;;;;;;5031230;28;20307;-74
2022/01/05 11:32:42;;;;;;;1999.90;999.90;;;4.50;99.90;;;;;;5031011;28;20685;-74
2022/01/05 11:35:08;;;;;;;1999.90;999.90;;;4.70;99.90;;;;;;5030672;28;20260;-74
2022/01/05 11:37:36;;;;;;;1999.90;999.90;;;4.80;99.90;;;;;;5031280;28;20904;-74
2022/01/05 11:40:05;;;;;;;1999.90;999.90;;;4.90;99.90;;;;;;5030812;28;21020;-74
2022/01/05 11:42:39;;;;;;;1999.90;999.90;;;5.00;99.90;;;;;;5031329;28;20427;-75
2022/01/05 11:45:07;;;;;;;1999.90;999.90;;;5.30;99.90;;;;;;5031451;28;20399;-75
2022/01/05 11:47:35;;;;;;;1999.90;999.90;;;5.60;99.90;;;;;;5031759;28;20469;-75
2022/01/05 11:50:13;;;;;;;1999.90;999.90;;;5.90;99.90;;;;;;5031939;28;20407;-75
2022/01/05 11:53:06;;;;;;;1999.90;999.90;;;5.90;99.90;;;;;;5031685;28;20443;-75
2022/01/05 11:55:56;;;;;;;1999.90;999.90;;;5.90;99.90;;;;;;5031249;28;20415;-75
2022/01/05 11:58:25;;;;;;;1999.90;999.90;;;5.90;99.90;;;;;;5022192;28;20618;-75
2022/01/05 12:01:13;;;;;;;1999.90;999.90;;;6.10;99.90;;;;;;5031855;28;20400;-75
2022/01/05 12:03:51;;;;;;;1999.90;999.90;;;5.90;99.90;;;;;;5031286;28;20429;-75
2022/01/05 12:06:18;;;;;;;1999.90;999.90;;;5.70;99.90;;;;;;5030290;28;20184;-75
2022/01/05 12:08:49;;;;;;;1999.90;999.90;;;5.50;99.90;;;;;;5031578;28;20716;-75
2022/01/05 12:11:40;;;;;;;1999.90;999.90;;;5.50;99.90;;;;;;5031265;28;20436;-75